createdAt,value
2023-04-20T00:00:02.472Z,97199.31
2023-04-20T00:03:02.016Z,97197.16
2023-04-20T00:05:32.338Z,97194.98
2023-04-20T00:08:01.382Z,97192.88
2023-04-20T00:10:29.557Z,97189.48
2023-04-20T00:12:57.732Z,97188.40
2023-04-20T00:15:25.726Z,97187.69
2023-04-20T00:17:53.770Z,97190.29
2023-04-20T00:20:21.940Z,97185.23
2023-04-20T00:22:50.035Z,97185.07
2023-04-20T00:25:18.188Z,97184.46
2023-04-20T00:27:46.256Z,97182.88
2023-04-20T00:30:14.983Z,97180.59
2023-04-20T00:32:43.064Z,97181.56
2023-04-20T00:35:11.165Z,97182.72
2023-04-20T00:37:39.357Z,97181.52
2023-04-20T00:40:09.162Z,97183.09
2023-04-20T00:42:38.257Z,97179.28
2023-04-20T00:45:06.728Z,97176.67
2023-04-20T00:47:35.336Z,97176.55
2023-04-20T00:50:04.710Z,97176.70
2023-04-20T00:52:33.905Z,97179.02
2023-04-20T00:55:03.572Z,97184.23
2023-04-20T00:57:32.722Z,97184.09
2023-04-20T01:00:02.548Z,97185.59
2023-04-20T01:02:31.015Z,97185.08
2023-04-20T01:04:59.567Z,97182.86
2023-04-20T01:07:30.100Z,97186.40
2023-04-20T01:09:58.392Z,97187.59
2023-04-20T01:12:26.527Z,97187.66
2023-04-20T01:14:54.544Z,97186.98
2023-04-20T01:17:24.273Z,97187.21
2023-04-20T01:19:52.624Z,97191.63
2023-04-20T01:22:22.439Z,97189.45
2023-04-20T01:24:50.410Z,97190.25
2023-04-20T01:27:18.893Z,97191.77
2023-04-20T01:29:46.924Z,97199.54
2023-04-20T01:32:15.236Z,97201.68
2023-04-20T01:34:43.316Z,97198.91
2023-04-20T01:37:11.791Z,97195.38
2023-04-20T01:39:41.335Z,97196.92
2023-04-20T01:42:09.912Z,97194.60
2023-04-20T01:44:39.386Z,97193.80
2023-04-20T01:47:07.499Z,97194.16
2023-04-20T01:49:35.833Z,97191.58
2023-04-20T01:52:04.026Z,97188.17
2023-04-20T01:54:32.502Z,97188.17
2023-04-20T01:57:03.216Z,97183.98
2023-04-20T01:59:31.398Z,97179.77
2023-04-20T02:02:00.566Z,97182.66
2023-04-20T02:04:28.796Z,97181.20
2023-04-20T02:06:57.044Z,97177.50
2023-04-20T02:09:25.112Z,97175.71
2023-04-20T02:11:53.032Z,97178.33
2023-04-20T02:14:21.141Z,97174.88
2023-04-20T02:16:49.842Z,97176.91
2023-04-20T02:19:18.167Z,97173.89
2023-04-20T02:21:46.502Z,97174.11
2023-04-20T02:24:14.545Z,97175.77
2023-04-20T02:26:42.831Z,97178.91
2023-04-20T02:29:10.925Z,97179.56
2023-04-20T02:31:38.949Z,97183.80
2023-04-20T02:34:09.492Z,97185.10
2023-04-20T02:36:37.908Z,97184.13
2023-04-20T02:39:06.081Z,97181.70
2023-04-20T02:41:35.265Z,97181.66
2023-04-20T02:44:03.608Z,97179.34
2023-04-20T02:46:32.912Z,97179.19
2023-04-20T02:49:02.516Z,97183.69
2023-04-20T02:51:32.451Z,97185.40
2023-04-20T02:54:00.585Z,97186.20
2023-04-20T02:56:30.010Z,97186.76
2023-04-20T02:59:02.190Z,97188.91
2023-04-20T03:01:39.593Z,97188.87
2023-04-20T03:04:16.816Z,97185.75
2023-04-20T03:06:51.178Z,97181.41
2023-04-20T03:09:25.498Z,97182.25
2023-04-20T03:12:12.307Z,97186.48
2023-04-20T03:15:08.121Z,97193.11
2023-04-20T03:17:44.662Z,97191.38
2023-04-20T03:20:15.045Z,97191.23
2023-04-20T03:22:43.282Z,97191.38
2023-04-20T03:25:12.018Z,97194.75
2023-04-20T03:27:54.074Z,97192.96
2023-04-20T03:30:22.380Z,97193.92
2023-04-20T03:32:55.163Z,97195.88
2023-04-20T03:35:23.154Z,97195.10
2023-04-20T03:37:51.220Z,97196.64
2023-04-20T03:40:20.055Z,97199.23
2023-04-20T03:42:48.647Z,97196.55
2023-04-20T03:45:17.553Z,97201.00
2023-04-20T03:47:45.587Z,97201.13
2023-04-20T03:50:13.824Z,97204.30
2023-04-20T03:52:42.064Z,97206.13
2023-04-20T03:55:11.304Z,97205.25
2023-04-20T03:57:43.516Z,97205.21
2023-04-20T04:00:12.619Z,97206.54
2023-04-20T04:02:47.019Z,97203.36
2023-04-20T04:05:19.234Z,97205.79
2023-04-20T04:07:50.512Z,97204.13
2023-04-20T04:10:20.407Z,97200.20
2023-04-20T04:12:49.791Z,97198.69
2023-04-20T04:15:19.630Z,97202.45
2023-04-20T04:17:59.752Z,97199.84
2023-04-20T04:20:28.402Z,97199.84
2023-04-20T04:22:57.620Z,97199.40
2023-04-20T04:25:37.711Z,97195.27
2023-04-20T04:28:06.653Z,97194.64
2023-04-20T04:30:36.984Z,97193.89
2023-04-20T04:33:05.366Z,97195.09
2023-04-20T04:35:35.368Z,97194.64
2023-04-20T04:38:03.949Z,97194.30
2023-04-20T04:40:33.699Z,97191.92
2023-04-20T04:43:02.853Z,97191.57
2023-04-20T04:45:31.529Z,97196.91
2023-04-20T04:48:00.117Z,97202.33
2023-04-20T04:50:28.298Z,97202.94
2023-04-20T04:52:57.005Z,97195.86
2023-04-20T04:55:25.101Z,97194.25
2023-04-20T04:57:53.072Z,97194.67
2023-04-20T05:00:22.910Z,97196.59
2023-04-20T05:02:53.268Z,97197.20
2023-04-20T05:05:22.168Z,97197.63
2023-04-20T05:07:50.219Z,97200.66
2023-04-20T05:10:18.585Z,97200.09
2023-04-20T05:12:47.561Z,97199.16
2023-04-20T05:15:15.763Z,97199.29
2023-04-20T05:17:44.520Z,97199.52
2023-04-20T05:20:12.676Z,97200.52
2023-04-20T05:22:40.876Z,97201.27
2023-04-20T05:25:10.630Z,97200.56
2023-04-20T05:27:39.897Z,97198.24
2023-04-20T05:30:21.339Z,97199.80
2023-04-20T05:32:52.307Z,97198.95
2023-04-20T05:35:21.822Z,97203.33
2023-04-20T05:37:50.212Z,97203.23
2023-04-20T05:40:18.624Z,97205.02
2023-04-20T05:42:46.723Z,97204.23
2023-04-20T05:45:14.943Z,97209.58
2023-04-20T05:47:51.954Z,97206.90
2023-04-20T05:50:20.495Z,97209.77
2023-04-20T05:52:49.202Z,97208.40
2023-04-20T05:55:19.968Z,97210.71
2023-04-20T05:57:52.067Z,97212.13
2023-04-20T06:00:23.126Z,97213.23
2023-04-20T06:02:52.718Z,97214.37
2023-04-20T06:05:21.746Z,97216.33
2023-04-20T06:07:49.891Z,97214.61
2023-04-20T06:10:18.381Z,97212.55
2023-04-20T06:12:46.411Z,97210.89
2023-04-20T06:15:14.505Z,97210.91
2023-04-20T06:17:42.688Z,97207.08
2023-04-20T06:20:11.882Z,97206.46
2023-04-20T06:22:44.615Z,97208.84
2023-04-20T06:25:13.765Z,97206.60
2023-04-20T06:27:42.344Z,97204.77
2023-04-20T06:30:11.196Z,97206.02
2023-04-20T06:32:39.330Z,97204.29
2023-04-20T06:35:08.803Z,97203.79
2023-04-20T06:37:36.973Z,97202.88
2023-04-20T06:40:08.366Z,97199.41
2023-04-20T06:42:37.582Z,97196.67
2023-04-20T06:45:07.009Z,97193.36
2023-04-20T06:47:35.246Z,97198.69
2023-04-20T06:50:10.222Z,97197.36
2023-04-20T06:52:39.895Z,97200.13
2023-04-20T06:55:08.922Z,97200.67
2023-04-20T06:57:38.843Z,97202.33
2023-04-20T07:00:09.201Z,97205.83
2023-04-20T07:02:48.679Z,97203.13
2023-04-20T07:05:18.282Z,97206.67
2023-04-20T07:07:46.816Z,97210.84
2023-04-20T07:10:15.991Z,97207.33
2023-04-20T07:12:44.669Z,97205.75
2023-04-20T07:15:13.565Z,97206.83
2023-04-20T07:17:41.790Z,97207.50
2023-04-20T07:20:10.260Z,97207.11
2023-04-20T07:22:39.455Z,97204.52
2023-04-20T07:25:09.919Z,97203.80
2023-04-20T07:27:40.052Z,97204.39
2023-04-20T07:30:10.645Z,97206.59
2023-04-20T07:32:41.027Z,97207.84
2023-04-20T07:35:10.048Z,97211.13
2023-04-20T07:37:38.407Z,97210.70
2023-04-20T07:40:07.529Z,97212.49
2023-04-20T07:42:37.289Z,97211.88
2023-04-20T07:45:07.230Z,97213.67
2023-04-20T07:47:36.732Z,97212.52
2023-04-20T07:50:06.774Z,97213.77
2023-04-20T07:52:35.937Z,97212.70
2023-04-20T07:55:05.355Z,97215.67
2023-04-20T07:57:34.950Z,97209.48
2023-04-20T08:00:05.779Z,97207.86
2023-04-20T08:02:41.060Z,97205.39
2023-04-20T08:05:12.527Z,97203.65
2023-04-20T08:07:40.945Z,97205.06
2023-04-20T08:10:10.651Z,97199.40
2023-04-20T08:12:40.309Z,97197.39
2023-04-20T08:15:09.466Z,97198.16
2023-04-20T08:17:37.560Z,97195.42
2023-04-20T08:20:06.714Z,97194.16
2023-04-20T08:22:34.789Z,97190.77
2023-04-20T08:25:02.865Z,97192.61
2023-04-20T08:27:31.341Z,97194.71
2023-04-20T08:29:59.419Z,97192.44
2023-04-20T08:32:27.411Z,97189.92
2023-04-20T08:34:56.277Z,97188.95
2023-04-20T08:37:25.504Z,97181.46
2023-04-20T08:39:53.662Z,97177.76
2023-04-20T08:42:21.983Z,97179.52
2023-04-20T08:44:50.090Z,97181.27
2023-04-20T08:47:18.165Z,97173.77
2023-04-20T08:49:49.339Z,97171.84
2023-04-20T08:52:17.481Z,97174.67
2023-04-20T08:54:55.785Z,97169.26
2023-04-20T08:57:26.316Z,97163.01
2023-04-20T08:59:55.732Z,97164.05
2023-04-20T09:02:24.028Z,97165.69
2023-04-20T09:05:04.217Z,97163.59
2023-04-20T09:07:32.539Z,97163.70
2023-04-20T09:10:01.207Z,97167.27
2023-04-20T09:12:41.165Z,97166.61
2023-04-20T09:15:10.787Z,97160.16
2023-04-20T09:17:41.320Z,97156.81
2023-04-20T09:20:11.527Z,97160.92
2023-04-20T09:22:41.250Z,97157.89
2023-04-20T09:25:13.875Z,97152.92
2023-04-20T09:27:42.094Z,97154.45
2023-04-20T09:30:11.524Z,97151.52
2023-04-20T09:32:40.699Z,97151.21
2023-04-20T09:35:09.646Z,97147.20
2023-04-20T09:37:48.276Z,97149.18
2023-04-20T09:40:16.757Z,97145.48
2023-04-20T09:42:45.453Z,97148.67
2023-04-20T09:45:14.849Z,97152.91
2023-04-20T09:47:44.542Z,97152.04
2023-04-20T09:50:24.730Z,97154.87
2023-04-20T09:52:56.148Z,97145.45
2023-04-20T09:55:26.411Z,97141.66
2023-04-20T09:57:55.592Z,97141.60
2023-04-20T10:00:23.843Z,97135.42
2023-04-20T10:02:52.249Z,97129.63
2023-04-20T10:05:20.813Z,97136.66
2023-04-20T10:08:01.056Z,97133.46
2023-04-20T10:10:30.689Z,97132.83
2023-04-20T10:13:01.629Z,97130.36
2023-04-20T10:15:40.580Z,97132.96
2023-04-20T10:18:19.240Z,97136.66
2023-04-20T10:20:47.450Z,97136.20
2023-04-20T10:23:16.614Z,97135.38
2023-04-20T10:25:59.456Z,97137.36
2023-04-20T10:28:42.151Z,97137.23
2023-04-20T10:31:13.964Z,97134.65
2023-04-20T10:33:55.915Z,97134.33
2023-04-20T10:36:44.392Z,97133.20
2023-04-20T10:39:19.375Z,97133.81
2023-04-20T10:42:04.055Z,97131.96
2023-04-20T10:44:34.095Z,97136.59
2023-04-20T10:47:02.633Z,97133.99
2023-04-20T10:49:31.874Z,97135.50
2023-04-20T10:52:00.116Z,97135.98
2023-04-20T10:54:37.635Z,97139.58
2023-04-20T10:57:07.028Z,97139.73
2023-04-20T10:59:37.376Z,97135.54
2023-04-20T11:02:11.022Z,97136.92
2023-04-20T11:04:40.485Z,97134.61
2023-04-20T11:07:10.492Z,97135.89
2023-04-20T11:09:38.679Z,97135.16
2023-04-20T11:12:15.105Z,97132.16
2023-04-20T11:14:58.841Z,97134.65
2023-04-20T11:17:38.001Z,97132.08
2023-04-20T11:20:14.472Z,97133.50
2023-04-20T11:22:43.659Z,97134.79
2023-04-20T11:25:12.900Z,97131.14
2023-04-20T11:27:42.417Z,97134.04
2023-04-20T11:30:10.717Z,97136.28
2023-04-20T11:32:39.526Z,97134.33
2023-04-20T11:35:11.238Z,97132.14
2023-04-20T11:37:57.864Z,97129.44
2023-04-20T11:40:28.084Z,97131.67
2023-04-20T11:42:58.507Z,97124.14
2023-04-20T11:45:28.083Z,97125.67
2023-04-20T11:47:56.153Z,97124.60
2023-04-20T11:50:25.190Z,97123.70
2023-04-20T11:52:53.288Z,97124.79
2023-04-20T11:55:21.436Z,97127.56
2023-04-20T11:57:50.438Z,97121.48
2023-04-20T12:00:19.456Z,97117.29
2023-04-20T12:02:48.785Z,97117.69
2023-04-20T12:05:17.141Z,97120.43
2023-04-20T12:07:45.250Z,97118.27
2023-04-20T12:10:13.308Z,97123.20
2023-04-20T12:12:42.377Z,97120.00
2023-04-20T12:15:11.005Z,97120.73
2023-04-20T12:17:39.271Z,97123.88
2023-04-20T12:20:08.986Z,97123.59
2023-04-20T12:22:37.319Z,97123.08
2023-04-20T12:25:06.680Z,97122.26
2023-04-20T12:27:34.770Z,97120.30
2023-04-20T12:30:02.750Z,97124.71
2023-04-20T12:32:31.011Z,97124.83
2023-04-20T12:34:59.461Z,97122.30
2023-04-20T12:37:27.739Z,97126.05
2023-04-20T12:39:55.918Z,97120.51
2023-04-20T12:42:24.186Z,97120.36
2023-04-20T12:44:56.429Z,97117.98
2023-04-20T12:47:24.517Z,97116.52
2023-04-20T12:49:52.608Z,97114.29
2023-04-20T12:52:20.861Z,97113.33
2023-04-20T12:54:50.019Z,97113.36
2023-04-20T12:57:18.039Z,97110.35
2023-04-20T12:59:48.723Z,97107.58
2023-04-20T13:02:18.311Z,97105.89
2023-04-20T13:04:47.165Z,97107.27
2023-04-20T13:07:15.695Z,97106.82
2023-04-20T13:09:43.920Z,97105.44
2023-04-20T13:12:13.189Z,97106.20
2023-04-20T13:14:41.395Z,97105.66
2023-04-20T13:17:09.462Z,97103.13
2023-04-20T13:19:37.850Z,97104.45
2023-04-20T13:22:06.218Z,97104.48
2023-04-20T13:24:34.381Z,97106.48
2023-04-20T13:27:02.646Z,97106.20
2023-04-20T13:29:31.151Z,97109.39
2023-04-20T13:31:59.069Z,97108.27
2023-04-20T13:34:27.596Z,97106.56
2023-04-20T13:36:55.669Z,97101.08
2023-04-20T13:39:24.390Z,97099.63
2023-04-20T13:41:52.311Z,97097.60
2023-04-20T13:44:21.352Z,97096.86
2023-04-20T13:46:50.090Z,97099.36
2023-04-20T13:49:18.192Z,97095.86
2023-04-20T13:51:46.545Z,97098.52
2023-04-20T13:54:14.578Z,97100.31
2023-04-20T13:56:42.906Z,97099.63
2023-04-20T13:59:11.378Z,97096.70
2023-04-20T14:01:39.496Z,97097.30
2023-04-20T14:04:10.238Z,97100.17
2023-04-20T14:06:38.429Z,97102.33
2023-04-20T14:09:07.732Z,97101.40
2023-04-20T14:11:38.684Z,97102.82
2023-04-20T14:14:07.266Z,97104.70
2023-04-20T14:16:47.013Z,97104.36
2023-04-20T14:19:15.510Z,97102.54
2023-04-20T14:21:47.512Z,97099.29
2023-04-20T14:24:15.837Z,97098.27
2023-04-20T14:26:44.173Z,97102.04
2023-04-20T14:29:12.366Z,97100.43
2023-04-20T14:31:40.570Z,97101.32
2023-04-20T14:34:09.627Z,97102.89
2023-04-20T14:36:37.732Z,97099.67
2023-04-20T14:39:05.795Z,97104.98
2023-04-20T14:41:34.744Z,97109.84
2023-04-20T14:44:03.066Z,97112.59
2023-04-20T14:46:31.184Z,97109.80
2023-04-20T14:48:59.621Z,97107.13
2023-04-20T14:51:28.511Z,97109.16
2023-04-20T14:53:56.692Z,97112.79
2023-04-20T14:56:24.754Z,97109.80
2023-04-20T14:58:53.851Z,97107.20
2023-04-20T15:01:22.046Z,97108.45
2023-04-20T15:03:50.394Z,97110.11
2023-04-20T15:06:18.822Z,97110.03
2023-04-20T15:08:47.176Z,97112.16
2023-04-20T15:11:15.326Z,97110.16
2023-04-20T15:13:43.918Z,97116.62
2023-04-20T15:16:12.400Z,97115.35
2023-04-20T15:18:40.378Z,97116.54
2023-04-20T15:21:08.915Z,97118.21
2023-04-20T15:23:37.417Z,97116.98
2023-04-20T15:26:07.823Z,97121.73
2023-04-20T15:28:35.813Z,97120.15
2023-04-20T15:31:07.257Z,97122.00
2023-04-20T15:33:35.440Z,97121.00
2023-04-20T15:36:03.562Z,97121.78
2023-04-20T15:38:31.668Z,97122.31
2023-04-20T15:41:00.066Z,97123.23
2023-04-20T15:43:28.026Z,97121.77
2023-04-20T15:45:56.152Z,97119.86
2023-04-20T15:48:24.361Z,97117.76
2023-04-20T15:50:52.959Z,97114.58
2023-04-20T15:53:22.258Z,97117.12
2023-04-20T15:55:50.510Z,97116.24
2023-04-20T15:58:19.216Z,97120.46
2023-04-20T16:00:47.279Z,97120.80
2023-04-20T16:03:15.489Z,97120.96
2023-04-20T16:05:43.737Z,97121.48
2023-04-20T16:08:13.345Z,97118.55
2023-04-20T16:10:41.408Z,97121.13
2023-04-20T16:13:10.001Z,97115.11
2023-04-20T16:15:39.202Z,97117.42
2023-04-20T16:18:07.323Z,97121.58
2023-04-20T16:20:35.434Z,97120.94
2023-04-20T16:23:03.501Z,97115.52
2023-04-20T16:25:34.236Z,97116.25
2023-04-20T16:28:02.603Z,97121.33
2023-04-20T16:30:31.094Z,97120.41
2023-04-20T16:33:00.076Z,97120.32
2023-04-20T16:35:28.471Z,97119.85
2023-04-20T16:37:56.538Z,97121.70
2023-04-20T16:40:26.373Z,97127.47
2023-04-20T16:42:54.643Z,97127.73
2023-04-20T16:45:22.964Z,97131.10
2023-04-20T16:47:51.459Z,97133.98
2023-04-20T16:50:20.703Z,97132.98
2023-04-20T16:52:49.573Z,97132.11
2023-04-20T16:55:17.755Z,97129.77
2023-04-20T16:57:46.122Z,97130.05
2023-04-20T17:00:15.001Z,97132.54
2023-04-20T17:02:43.419Z,97133.18
2023-04-20T17:05:11.516Z,97133.04
2023-04-20T17:07:39.832Z,97135.16
2023-04-20T17:10:08.528Z,97134.84
2023-04-20T17:12:36.597Z,97138.02
2023-04-20T17:15:05.269Z,97139.88
2023-04-20T17:17:34.368Z,97140.86
2023-04-20T17:20:06.555Z,97137.41
2023-04-20T17:22:35.629Z,97141.50
2023-04-20T17:25:06.963Z,97143.59
2023-04-20T17:27:36.140Z,97142.99
2023-04-20T17:30:05.402Z,97146.42
2023-04-20T17:32:33.439Z,97148.41
2023-04-20T17:35:01.695Z,97151.23
2023-04-20T17:37:29.887Z,97154.01
2023-04-20T17:39:58.369Z,97156.12
2023-04-20T17:42:26.670Z,97159.16
2023-04-20T17:44:54.710Z,97161.04
2023-04-20T17:47:22.933Z,97157.39
2023-04-20T17:49:51.367Z,97162.48
2023-04-20T17:52:19.779Z,97165.56
2023-04-20T17:54:47.921Z,97166.08
2023-04-20T17:57:15.993Z,97170.52
2023-04-20T17:59:44.504Z,97170.31
2023-04-20T18:02:13.391Z,97172.10
2023-04-20T18:04:42.026Z,97173.98
2023-04-20T18:07:13.189Z,97174.64
2023-04-20T18:09:41.573Z,97175.77
2023-04-20T18:12:11.476Z,97174.50
2023-04-20T18:14:42.456Z,97174.20
2023-04-20T18:17:10.608Z,97173.75
2023-04-20T18:19:38.974Z,97173.99
2023-04-20T18:22:07.863Z,97177.60
2023-04-20T18:24:36.359Z,97182.66
2023-04-20T18:27:04.426Z,97194.49
2023-04-20T18:29:32.604Z,97195.14
2023-04-20T18:32:01.392Z,97196.48
2023-04-20T18:34:32.120Z,97202.17
2023-04-20T18:37:00.416Z,97205.80
2023-04-20T18:39:28.566Z,97213.81
2023-04-20T18:41:59.086Z,97216.06
2023-04-20T18:44:29.214Z,97222.12
2023-04-20T18:46:58.081Z,97226.86
2023-04-20T18:49:26.285Z,97224.63
2023-04-20T18:51:54.632Z,97227.07
2023-04-20T18:54:22.664Z,97226.58
2023-04-20T18:56:51.197Z,97225.58
2023-04-20T18:59:19.178Z,97221.57
2023-04-20T19:01:48.892Z,97226.64
2023-04-20T19:04:17.973Z,97230.84
2023-04-20T19:06:46.434Z,97231.70
2023-04-20T19:09:14.969Z,97229.44
2023-04-20T19:11:43.612Z,97230.73
2023-04-20T19:14:12.522Z,97232.27
2023-04-20T19:16:40.721Z,97233.23
2023-04-20T19:19:09.782Z,97233.52
2023-04-20T19:21:38.139Z,97233.77
2023-04-20T19:24:06.894Z,97232.30
2023-04-20T19:26:35.152Z,97233.81
2023-04-20T19:29:03.404Z,97233.68
2023-04-20T19:31:37.061Z,97233.40
2023-04-20T19:34:05.120Z,97234.92
2023-04-20T19:36:33.883Z,97234.40
2023-04-20T19:39:01.912Z,97231.91
2023-04-20T19:41:30.062Z,97235.90
2023-04-20T19:43:59.601Z,97237.77
2023-04-20T19:46:27.893Z,97237.18
2023-04-20T19:48:56.954Z,97242.52
2023-04-20T19:51:25.741Z,97244.27
2023-04-20T19:53:54.392Z,97246.80
2023-04-20T19:56:22.706Z,97247.17
2023-04-20T19:58:50.874Z,97243.31
2023-04-20T20:01:19.795Z,97242.35
2023-04-20T20:03:48.110Z,97238.05
2023-04-20T20:06:16.513Z,97239.61
2023-04-20T20:08:44.890Z,97240.55
2023-04-20T20:11:12.988Z,97238.88
2023-04-20T20:13:40.865Z,97241.81
2023-04-20T20:16:10.413Z,97242.29
2023-04-20T20:18:38.692Z,97244.30
2023-04-20T20:21:06.892Z,97243.20
2023-04-20T20:23:35.073Z,97241.46
2023-04-20T20:26:03.650Z,97240.27
2023-04-20T20:28:31.919Z,97240.95
2023-04-20T20:31:00.001Z,97240.26
2023-04-20T20:33:28.371Z,97240.41
2023-04-20T20:35:56.447Z,97242.41
2023-04-20T20:38:24.805Z,97239.51
2023-04-20T20:40:53.659Z,97237.78
2023-04-20T20:43:23.157Z,97234.66
2023-04-20T20:45:52.405Z,97232.02
2023-04-20T20:48:20.990Z,97234.68
2023-04-20T20:50:49.070Z,97240.52
2023-04-20T20:53:20.480Z,97238.68
2023-04-20T20:55:48.579Z,97237.25
2023-04-20T20:58:16.689Z,97239.21
2023-04-20T21:00:47.221Z,97244.05
2023-04-20T21:03:16.028Z,97245.13
2023-04-20T21:05:44.294Z,97246.09
2023-04-20T21:08:12.928Z,97246.40
2023-04-20T21:10:41.200Z,97250.04
2023-04-20T21:13:09.371Z,97252.59
2023-04-20T21:15:37.553Z,97252.48
2023-04-20T21:18:05.762Z,97252.61
2023-04-20T21:20:34.638Z,97253.61
2023-04-20T21:23:02.786Z,97255.67
2023-04-20T21:25:30.767Z,97261.96
2023-04-20T21:27:58.898Z,97263.13
2023-04-20T21:30:28.292Z,97264.79
2023-04-20T21:32:56.453Z,97260.77
2023-04-20T21:35:24.881Z,97265.60
2023-04-20T21:37:53.063Z,97268.36
2023-04-20T21:40:21.370Z,97268.55
2023-04-20T21:42:49.310Z,97261.77
2023-04-20T21:45:17.674Z,97261.55
2023-04-20T21:47:45.735Z,97262.23
2023-04-20T21:50:13.974Z,97261.55
2023-04-20T21:52:42.194Z,97263.20
2023-04-20T21:55:10.704Z,97262.02
2023-04-20T21:57:38.740Z,97259.24
2023-04-20T22:00:09.007Z,97262.89
2023-04-20T22:02:43.001Z,97259.77
2023-04-20T22:05:12.067Z,97259.99
2023-04-20T22:07:40.347Z,97260.27
2023-04-20T22:10:09.245Z,97260.16
2023-04-20T22:12:40.880Z,97261.73
2023-04-20T22:15:11.128Z,97257.52
2023-04-20T22:17:40.125Z,97256.11
2023-04-20T22:20:10.679Z,97253.05
2023-04-20T22:22:39.306Z,97256.06
2023-04-20T22:25:08.845Z,97262.61
2023-04-20T22:27:37.940Z,97260.93
2023-04-20T22:30:08.817Z,97261.66
2023-04-20T22:32:38.651Z,97263.88
2023-04-20T22:35:08.061Z,97265.05
2023-04-20T22:37:36.125Z,97260.52
2023-04-20T22:40:06.076Z,97256.46
2023-04-20T22:42:37.896Z,97258.73
2023-04-20T22:45:06.800Z,97258.84
2023-04-20T22:47:34.941Z,97261.66
2023-04-20T22:50:03.455Z,97253.64
2023-04-20T22:52:32.562Z,97256.56
2023-04-20T22:55:00.646Z,97262.44
2023-04-20T22:57:28.893Z,97264.88
2023-04-20T22:59:56.966Z,97265.65
2023-04-20T23:02:25.056Z,97263.21
2023-04-20T23:04:53.217Z,97265.67
2023-04-20T23:07:21.464Z,97263.32
2023-04-20T23:09:51.192Z,97267.86
2023-04-20T23:12:20.998Z,97265.27
2023-04-20T23:14:50.957Z,97262.20
2023-04-20T23:17:19.039Z,97266.60
2023-04-20T23:19:47.571Z,97266.46
2023-04-20T23:22:15.928Z,97264.09
2023-04-20T23:24:44.014Z,97269.91
2023-04-20T23:27:12.288Z,97269.30
2023-04-20T23:29:40.479Z,97271.29
2023-04-20T23:32:08.601Z,97270.52
2023-04-20T23:34:36.902Z,97272.04
2023-04-20T23:37:05.011Z,97266.84
2023-04-20T23:39:37.528Z,97266.37
2023-04-20T23:42:06.000Z,97271.77
2023-04-20T23:44:34.114Z,97269.55
2023-04-20T23:47:02.467Z,97270.34
2023-04-20T23:49:30.419Z,97268.11
2023-04-20T23:51:58.529Z,97269.43
2023-04-20T23:54:27.122Z,97266.30
2023-04-20T23:56:55.942Z,97265.98
2023-04-20T23:59:23.855Z,97265.44
